Clackamas, OR

11:47 AM PDT on September 20, 2014 (GMT -0700)
Portland International | Change Station
CLOSE
Current Station
Airport
Location: Portland,
Elevation: 16 ft
Nearby Weather Stations

Elev 16 ft 45.60 °N, 122.61 °W | Updated 54 minutes ago

Clear
Clear
71 °F
Feels Like 71 °F
N
5
Wind Variable Wind from WNW

Today
High -- | Low -- °F
--% Chance of Precip.
Yesterday
High -- | Low -- °F
Precip. -- in
6:54 AM 7:11 PM
Waning Crescent, 11% visible
Pressure 29.97 in
Visibility 10.0 miles
Clouds Clear
Dew Point 58 °F
Humidity 63%
Rainfall 0.00 in
Snow Depth 0 in , 0 in , 0 in
UV 4 out of 12
Pollen 2.70 out of 12
Ozone Good
PM2.5 Good
Flu Activity Not available.
METAR KPDX 201753Z 30004KT 10SM CLR 22/14 A2997 RMK AO2 SLP147 T02170144 10217 20150 58011

More Conditions Fewer Conditions

Pressure 29.97 in
Visibility 10.0 miles
Clouds Clear
Dew Point 58 °F
Humidity 63%
Rainfall 0.00 in
Snow Depth 0 in , 0 in , 0 in
UV 4 out of 12
Pollen 2.70 out of 12
Ozone Good
PM2.5 Good
Flu Activity Not available.
METAR KPDX 201753Z 30004KT 10SM CLR 22/14 A2997 RMK AO2 SLP147 T02170144 10217 20150 58011

More Conditions Fewer Conditions

10-Day Weather Forecast

Almanac

Astronomy

Sep. 20, 2014 Rise Set
Actual Time 6:54 AM PDT 7:11 PM PDT
Civil Twilight 6:25 AM PDT 7:40 PM PDT
Nautical Twilight 5:50 AM PDT 8:15 PM PDT
Astronomical Twilight 5:14 AM PDT 8:51 PM PDT
Moon 3:31 AM PDT 5:24 PM PDT
Length of Visible Light 13h 15m
Length of Day
12h 16m
Tomorrow will be 3m 9s shorter.
Waning Crescent, 11% of the Moon is Illuminated
Today
Waning Crescent
Sep 24
New
Oct 1
First Quarter
Oct 8
Full
Oct 15
Last Quarter

Today's Extremes

State Highs State Lows

Community

WunderPhotos

Upload Photos

1,754,923 photos uploaded!

WunderBlogs® & News

Nearby

Air Quality

  Air Quality AQ Index Pollutant
Yesterday Good
OZONE
Yesterday Good
PM2.5
Current Good
PM2.5
Current Good
OZONE
Saturday Good
PM2.5

Snow Depth

Station Depth Elevation
Chemult Alternate 0 in 4760 ft
Mud Ridge 0 in 3800 ft
Sevenmile Marsh 0 in 6200 ft
Hogg Pass 0 in 4760 ft
Greenpoint 1 in 3200 ft

Earthquake Activity

City Distance Mag. Time & Date
No recent earthquake activity has been reported nearby.
Minimum magnitude displayed is 2.5.

Coastal Water Temperatures

Place Temperature
No Stations Reporting

Nearby Weather Stations